Terminal Aerodrome Forecast
Issued by NWS Denver/Boulder, CO

Home | Current Version | Previous Version | Graphics & Text | Print | Product List | Glossary On
Versions: 1 2 3 4 5 6 7 8 9 10 11 12 13 14 15 16 17 18 19 20 21 22 23 24 25 26 27 28 29 30 31 32 33 34 35 36 37 38 39 40 41 42 43 44 45 46 47 48 49 50
000
FTUS45 KBOU 182010 AAB
TAFDEN
TAF AMD
KDEN 182010Z 1820/1924 31014G22KT P6SM FEW140 SCT200
      TEMPO 1820/1824 31014KT
     FM190100 21014KT P6SM FEW140 BKN200
     FM190900 05010KT P6SM FEW025 SCT050 BKN140
     FM191100 07012G18KT 3SM BR BKN007 OVC020
      TEMPO 1911/1915 1SM -FZDZ BR VV004
     FM191500 08013KT 2SM -FZDZ BR BKN003 OVC008
     FM191900 10016G24KT 2SM -SN BR BKN004 OVC009=

USA.gov is the U.S. government's official web portal to all federal, state and local government web resources and services.